createdAt,value
2023-05-02T00:01:20.959Z,13.40
2023-05-02T00:03:48.488Z,13.38
2023-05-02T00:06:15.785Z,13.39
2023-05-02T00:08:43.026Z,13.40
2023-05-02T00:11:10.100Z,13.45
2023-05-02T00:13:37.067Z,13.44
2023-05-02T00:16:04.296Z,13.44
2023-05-02T00:18:31.334Z,13.45
2023-05-02T00:20:58.262Z,13.48
2023-05-02T00:23:25.260Z,13.46
2023-05-02T00:25:52.209Z,13.47
2023-05-02T00:28:19.236Z,13.43
2023-05-02T00:30:47.165Z,13.42
2023-05-02T00:33:16.091Z,13.38
2023-05-02T00:35:43.137Z,13.39
2023-05-02T00:38:10.286Z,13.35
2023-05-02T00:40:45.106Z,13.34
2023-05-02T00:43:12.421Z,13.34
2023-05-02T00:45:43.779Z,13.34
2023-05-02T00:48:14.151Z,13.38
2023-05-02T00:50:42.680Z,13.41
2023-05-02T00:53:11.277Z,13.41
2023-05-02T00:55:38.711Z,13.34
2023-05-02T00:58:11.168Z,13.33
2023-05-02T01:01:15.594Z,13.35
2023-05-02T01:03:53.021Z,13.27
2023-05-02T01:06:41.906Z,13.29
2023-05-02T01:09:37.854Z,13.28
2023-05-02T01:12:11.214Z,13.23
2023-05-02T01:14:43.177Z,13.25
2023-05-02T01:17:13.330Z,13.26
2023-05-02T01:19:45.326Z,13.21
2023-05-02T01:22:14.684Z,13.15
2023-05-02T01:24:55.531Z,13.17
2023-05-02T01:27:37.116Z,13.22
2023-05-02T01:30:06.521Z,13.10
2023-05-02T01:32:37.515Z,13.06
2023-05-02T01:35:06.707Z,13.02
2023-05-02T01:37:34.486Z,12.95
2023-05-02T01:40:04.641Z,12.76
2023-05-02T01:42:34.147Z,12.75
2023-05-02T01:45:04.548Z,12.73
2023-05-02T01:47:33.749Z,12.71
2023-05-02T01:50:03.612Z,12.69
2023-05-02T01:52:30.707Z,12.58
2023-05-02T01:55:00.780Z,12.60
2023-05-02T01:57:27.846Z,12.61
2023-05-02T01:59:59.965Z,12.58
2023-05-02T02:02:29.958Z,12.47
2023-05-02T02:04:59.802Z,12.50
2023-05-02T02:07:26.791Z,12.40
2023-05-02T02:09:53.880Z,12.42
2023-05-02T02:12:27.089Z,12.44
2023-05-02T02:15:01.741Z,12.40
2023-05-02T02:17:39.707Z,12.44
2023-05-02T02:20:10.286Z,12.38
2023-05-02T02:22:39.478Z,12.38
2023-05-02T02:25:10.598Z,12.30
2023-05-02T02:27:38.538Z,12.12
2023-05-02T02:30:06.312Z,12.08
2023-05-02T02:32:33.355Z,11.89
2023-05-02T02:35:01.444Z,11.89
2023-05-02T02:37:52.150Z,11.86
2023-05-02T02:40:42.444Z,11.93
2023-05-02T02:43:36.490Z,11.84
2023-05-02T02:46:06.093Z,11.83
2023-05-02T02:48:43.585Z,11.86
2023-05-02T02:51:16.160Z,11.89
2023-05-02T02:53:58.483Z,11.81
2023-05-02T02:56:35.191Z,11.65
2023-05-02T02:59:09.397Z,11.69
2023-05-02T03:01:39.742Z,11.70
2023-05-02T03:04:09.296Z,11.74
2023-05-02T03:06:37.139Z,11.73
2023-05-02T03:09:04.433Z,11.78
2023-05-02T03:11:31.402Z,11.67
2023-05-02T03:13:58.366Z,11.76
2023-05-02T03:16:31.450Z,11.71
2023-05-02T03:18:58.687Z,11.63
2023-05-02T03:21:25.705Z,11.56
2023-05-02T03:23:53.171Z,11.55
2023-05-02T03:26:20.154Z,11.53
2023-05-02T03:28:47.355Z,11.40
2023-05-02T03:31:14.947Z,11.39
2023-05-02T03:33:42.001Z,11.35
2023-05-02T03:36:09.149Z,11.35
2023-05-02T03:38:36.064Z,11.28
2023-05-02T03:41:04.176Z,11.18
2023-05-02T03:43:31.156Z,11.17
2023-05-02T03:45:58.639Z,11.19
2023-05-02T03:48:25.754Z,11.12
2023-05-02T03:50:52.726Z,11.15
2023-05-02T03:53:19.747Z,11.14
2023-05-02T03:55:46.691Z,11.22
2023-05-02T03:58:13.633Z,11.10
2023-05-02T04:00:40.684Z,11.05
2023-05-02T04:03:08.125Z,11.04
2023-05-02T04:05:35.032Z,10.91
2023-05-02T04:08:02.838Z,11.01
2023-05-02T04:10:29.762Z,11.05
2023-05-02T04:12:56.733Z,11.03
2023-05-02T04:15:23.651Z,11.07
2023-05-02T04:17:50.652Z,11.00
2023-05-02T04:20:17.785Z,11.06
2023-05-02T04:22:44.822Z,11.02
2023-05-02T04:25:11.835Z,10.94
2023-05-02T04:27:38.858Z,10.95
2023-05-02T04:30:06.617Z,11.02
2023-05-02T04:32:34.271Z,11.01
2023-05-02T04:35:01.708Z,10.99
2023-05-02T04:37:28.780Z,10.98
2023-05-02T04:39:55.770Z,11.06
2023-05-02T04:42:23.611Z,11.14
2023-05-02T04:44:50.837Z,11.10
2023-05-02T04:47:17.962Z,11.06
2023-05-02T04:49:44.927Z,11.02
2023-05-02T04:52:12.024Z,11.04
2023-05-02T04:54:38.958Z,11.08
2023-05-02T04:57:08.088Z,11.09
2023-05-02T04:59:35.415Z,10.99
2023-05-02T05:02:03.183Z,11.03
2023-05-02T05:04:30.236Z,11.09
2023-05-02T05:06:57.235Z,10.91
2023-05-02T05:09:24.191Z,10.84
2023-05-02T05:11:51.100Z,10.89
2023-05-02T05:14:18.150Z,10.68
2023-05-02T05:16:45.146Z,10.70
2023-05-02T05:19:12.693Z,10.75
2023-05-02T05:21:39.632Z,10.90
2023-05-02T05:24:06.810Z,10.92
2023-05-02T05:26:33.748Z,10.85
2023-05-02T05:29:01.008Z,10.70
2023-05-02T05:31:28.288Z,10.68
2023-05-02T05:33:55.373Z,10.79
2023-05-02T05:36:23.666Z,10.79
2023-05-02T05:38:51.601Z,10.94
2023-05-02T05:41:18.516Z,10.83
2023-05-02T05:43:45.693Z,10.72
2023-05-02T05:46:12.673Z,10.76
2023-05-02T05:48:39.723Z,10.73
2023-05-02T05:51:07.505Z,10.77
2023-05-02T05:53:34.553Z,10.86
2023-05-02T05:56:09.845Z,10.85
2023-05-02T05:58:38.429Z,10.84
2023-05-02T06:01:06.597Z,10.79
2023-05-02T06:03:33.771Z,10.75
2023-05-02T06:06:01.138Z,10.77
2023-05-02T06:08:31.047Z,10.73
2023-05-02T06:10:57.982Z,10.60
2023-05-02T06:13:24.978Z,10.60
2023-05-02T06:15:52.025Z,10.54
2023-05-02T06:18:19.380Z,10.54
2023-05-02T06:20:46.282Z,10.68
2023-05-02T06:23:13.236Z,10.64
2023-05-02T06:25:40.307Z,10.68
2023-05-02T06:28:07.596Z,10.70
2023-05-02T06:30:34.662Z,10.66
2023-05-02T06:33:04.825Z,10.60
2023-05-02T06:35:31.907Z,10.61
2023-05-02T06:37:58.989Z,10.59
2023-05-02T06:40:26.112Z,10.73
2023-05-02T06:42:53.300Z,10.76
2023-05-02T06:45:20.303Z,10.80
2023-05-02T06:47:47.241Z,10.83
2023-05-02T06:50:17.167Z,10.84
2023-05-02T06:52:44.150Z,10.95
2023-05-02T06:55:11.205Z,11.03
2023-05-02T06:57:38.224Z,10.94
2023-05-02T07:00:05.869Z,10.98
2023-05-02T07:02:32.915Z,11.01
2023-05-02T07:04:59.934Z,10.88
2023-05-02T07:07:26.924Z,10.89
2023-05-02T07:09:53.979Z,10.88
2023-05-02T07:12:21.561Z,10.85
2023-05-02T07:14:48.546Z,10.83
2023-05-02T07:17:15.970Z,10.89
2023-05-02T07:19:45.350Z,10.71
2023-05-02T07:22:14.919Z,10.78
2023-05-02T07:24:42.467Z,10.86
2023-05-02T07:27:10.680Z,10.88
2023-05-02T07:29:38.250Z,11.02
2023-05-02T07:32:06.160Z,11.16
2023-05-02T07:34:33.197Z,11.27
2023-05-02T07:37:01.993Z,11.41
2023-05-02T07:39:33.497Z,11.53
2023-05-02T07:42:00.444Z,11.51
2023-05-02T07:44:32.060Z,11.47
2023-05-02T07:46:59.052Z,11.40
2023-05-02T07:49:28.617Z,11.30
2023-05-02T07:51:57.775Z,11.28
2023-05-02T07:54:27.832Z,11.41
2023-05-02T07:56:58.370Z,11.31
2023-05-02T07:59:25.400Z,11.27
2023-05-02T08:01:52.392Z,11.25
2023-05-02T08:04:19.856Z,11.26
2023-05-02T08:06:47.052Z,11.26
2023-05-02T08:09:14.048Z,11.31
2023-05-02T08:11:41.126Z,11.38
2023-05-02T08:14:08.461Z,11.39
2023-05-02T08:16:35.503Z,11.36
2023-05-02T08:19:02.511Z,11.34
2023-05-02T08:21:29.630Z,11.37
2023-05-02T08:24:01.244Z,11.37
2023-05-02T08:26:28.541Z,11.37
2023-05-02T08:28:55.826Z,11.45
2023-05-02T08:31:23.242Z,11.40
2023-05-02T08:33:53.375Z,11.46
2023-05-02T08:36:23.234Z,11.42
2023-05-02T08:38:50.218Z,11.54
2023-05-02T08:41:19.356Z,11.78
2023-05-02T08:43:47.353Z,11.89
2023-05-02T08:46:16.443Z,11.96
2023-05-02T08:48:46.300Z,11.86
2023-05-02T08:51:15.981Z,11.69
2023-05-02T08:53:44.343Z,11.65
2023-05-02T08:56:13.082Z,11.55
2023-05-02T08:58:41.336Z,11.66
2023-05-02T09:01:15.930Z,11.86
2023-05-02T09:03:46.829Z,12.09
2023-05-02T09:06:22.172Z,12.23
2023-05-02T09:08:52.705Z,12.06
2023-05-02T09:11:21.656Z,12.03
2023-05-02T09:13:53.791Z,12.08
2023-05-02T09:16:27.431Z,12.25
2023-05-02T09:18:56.537Z,12.40
2023-05-02T09:21:25.476Z,12.34
2023-05-02T09:23:54.901Z,12.47
2023-05-02T09:26:24.972Z,12.58
2023-05-02T09:28:56.113Z,12.36
2023-05-02T09:31:49.650Z,12.14
2023-05-02T09:34:16.809Z,12.00
2023-05-02T09:36:51.471Z,12.41
2023-05-02T09:39:31.675Z,12.68
2023-05-02T09:41:59.025Z,12.73
2023-05-02T09:44:36.307Z,12.69
2023-05-02T09:47:03.717Z,12.51
2023-05-02T09:49:41.309Z,12.71
2023-05-02T09:52:23.685Z,12.66
2023-05-02T09:54:52.405Z,12.72
2023-05-02T09:57:19.918Z,12.81
2023-05-02T09:59:57.866Z,12.79
2023-05-02T10:02:25.963Z,12.47
2023-05-02T10:04:57.071Z,12.38
2023-05-02T10:07:26.057Z,12.38
2023-05-02T10:09:55.152Z,12.24
2023-05-02T10:12:26.189Z,12.29
2023-05-02T10:15:01.460Z,12.52
2023-05-02T10:17:31.909Z,12.67
2023-05-02T10:20:05.510Z,12.81
2023-05-02T10:22:35.032Z,12.62
2023-05-02T10:25:03.820Z,12.57
2023-05-02T10:27:32.408Z,12.72
2023-05-02T10:30:00.983Z,12.65
2023-05-02T10:32:29.749Z,12.52
2023-05-02T10:35:04.749Z,12.36
2023-05-02T10:37:36.710Z,12.22
2023-05-02T10:40:06.375Z,12.27
2023-05-02T10:42:40.322Z,12.35
2023-05-02T10:45:14.776Z,12.39
2023-05-02T10:47:41.987Z,12.42
2023-05-02T10:50:12.774Z,12.47
2023-05-02T10:52:41.389Z,12.47
2023-05-02T10:55:19.633Z,12.55
2023-05-02T10:57:59.281Z,12.63
2023-05-02T11:00:36.293Z,12.90
2023-05-02T11:03:03.942Z,12.96
2023-05-02T11:05:31.099Z,12.98
2023-05-02T11:08:17.191Z,12.87
2023-05-02T11:10:47.642Z,12.61
2023-05-02T11:13:16.955Z,12.37
2023-05-02T11:15:43.957Z,12.26
2023-05-02T11:18:13.097Z,12.12
2023-05-02T11:20:44.470Z,12.12
2023-05-02T11:23:18.349Z,12.00
2023-05-02T11:25:50.233Z,12.13
2023-05-02T11:28:39.898Z,12.24
2023-05-02T11:31:31.183Z,12.28
2023-05-02T11:33:59.522Z,12.21
2023-05-02T11:36:35.859Z,12.44
2023-05-02T11:39:05.439Z,12.51
2023-05-02T11:41:43.060Z,12.67
2023-05-02T11:44:10.512Z,12.80
2023-05-02T11:46:38.296Z,12.88
2023-05-02T11:49:08.295Z,12.97
2023-05-02T11:51:36.638Z,13.02
2023-05-02T11:54:04.193Z,13.00
2023-05-02T11:56:31.716Z,13.26
2023-05-02T11:59:00.187Z,13.30
2023-05-02T12:01:27.781Z,13.35
2023-05-02T12:04:08.390Z,13.52
2023-05-02T12:06:35.630Z,13.44
2023-05-02T12:09:11.285Z,13.14
2023-05-02T12:11:38.848Z,13.11
2023-05-02T12:14:06.937Z,13.29
2023-05-02T12:16:34.525Z,13.42
2023-05-02T12:19:01.890Z,13.19
2023-05-02T12:21:30.187Z,13.15
2023-05-02T12:23:57.695Z,13.29
2023-05-02T12:26:29.464Z,13.55
2023-05-02T12:28:57.319Z,13.52
2023-05-02T12:31:25.670Z,13.51
2023-05-02T12:33:55.498Z,13.17
2023-05-02T12:36:22.553Z,13.14
2023-05-02T12:38:55.204Z,13.11
2023-05-02T12:41:32.704Z,13.10
2023-05-02T12:44:00.866Z,13.09
2023-05-02T12:46:28.662Z,13.23
2023-05-02T12:49:10.206Z,13.35
2023-05-02T12:51:39.995Z,13.37
2023-05-02T12:54:07.544Z,13.40
2023-05-02T12:56:41.898Z,13.41
2023-05-02T12:59:09.701Z,13.02
2023-05-02T13:01:36.866Z,12.76
2023-05-02T13:04:04.244Z,12.73
2023-05-02T13:06:31.592Z,12.68
2023-05-02T13:08:58.987Z,12.94
2023-05-02T13:11:25.996Z,13.11
2023-05-02T13:13:53.753Z,13.10
2023-05-02T13:16:21.660Z,12.89
2023-05-02T13:18:48.801Z,12.73
2023-05-02T13:21:16.278Z,12.66
2023-05-02T13:23:44.413Z,12.56
2023-05-02T13:26:11.596Z,12.62
2023-05-02T13:28:38.621Z,12.61
2023-05-02T13:31:05.656Z,12.60
2023-05-02T13:33:32.610Z,12.63
2023-05-02T13:35:59.572Z,12.55
2023-05-02T13:38:27.027Z,12.65
2023-05-02T13:40:54.713Z,12.73
2023-05-02T13:43:21.667Z,12.93
2023-05-02T13:45:49.138Z,12.95
2023-05-02T13:48:16.381Z,13.21
2023-05-02T13:50:43.493Z,13.18
2023-05-02T13:53:11.431Z,13.05
2023-05-02T13:55:38.347Z,12.88
2023-05-02T13:58:06.009Z,12.73
2023-05-02T14:00:33.184Z,12.61
2023-05-02T14:03:00.490Z,12.49
2023-05-02T14:05:27.624Z,12.31
2023-05-02T14:07:54.582Z,12.26
2023-05-02T14:10:21.645Z,12.32
2023-05-02T14:12:48.969Z,12.27
2023-05-02T14:15:16.126Z,12.37
2023-05-02T14:17:43.137Z,12.55
2023-05-02T14:20:10.920Z,12.65
2023-05-02T14:22:37.985Z,12.78
2023-05-02T14:25:06.041Z,13.09
2023-05-02T14:27:33.085Z,13.23
2023-05-02T14:30:00.454Z,13.34
2023-05-02T14:32:27.823Z,13.62
2023-05-02T14:34:54.837Z,13.63
2023-05-02T14:37:21.834Z,13.62
2023-05-02T14:39:58.359Z,13.45
2023-05-02T14:42:26.061Z,13.31
2023-05-02T14:44:53.665Z,13.11
2023-05-02T14:47:21.152Z,12.99
2023-05-02T14:49:48.267Z,12.95
2023-05-02T14:52:15.180Z,12.90
2023-05-02T14:54:42.154Z,12.74
2023-05-02T14:57:09.410Z,12.75
2023-05-02T14:59:37.296Z,12.73
2023-05-02T15:02:04.553Z,12.65
2023-05-02T15:04:31.937Z,12.77
2023-05-02T15:07:01.284Z,12.73
2023-05-02T15:09:29.347Z,12.64
2023-05-02T15:11:56.924Z,12.60
2023-05-02T15:14:23.924Z,12.56
2023-05-02T15:16:51.065Z,12.52
2023-05-02T15:19:18.086Z,12.45
2023-05-02T15:21:45.034Z,12.42
2023-05-02T15:24:12.063Z,12.38
2023-05-02T15:26:40.566Z,12.32
2023-05-02T15:29:07.656Z,12.48
2023-05-02T15:31:34.818Z,12.58
2023-05-02T15:34:01.913Z,12.66
2023-05-02T15:36:30.164Z,12.81
2023-05-02T15:38:57.498Z,12.92
2023-05-02T15:41:27.751Z,13.37
2023-05-02T15:43:54.876Z,13.45
2023-05-02T15:46:22.176Z,13.29
2023-05-02T15:48:49.391Z,13.13
2023-05-02T15:51:16.637Z,13.06
2023-05-02T15:53:45.133Z,12.99
2023-05-02T15:56:12.451Z,12.97
2023-05-02T15:58:39.668Z,12.92
2023-05-02T16:01:06.713Z,12.84
2023-05-02T16:03:37.382Z,12.79
2023-05-02T16:06:06.651Z,12.71
2023-05-02T16:08:33.780Z,12.68
2023-05-02T16:11:01.998Z,12.66
2023-05-02T16:13:29.190Z,12.63
2023-05-02T16:15:56.336Z,12.48
2023-05-02T16:18:28.454Z,12.58
2023-05-02T16:20:58.749Z,12.96
2023-05-02T16:23:26.479Z,13.58
2023-05-02T16:26:00.967Z,13.84
2023-05-02T16:28:28.563Z,13.48
2023-05-02T16:30:55.757Z,13.01
2023-05-02T16:33:23.146Z,12.77
2023-05-02T16:35:59.725Z,12.72
2023-05-02T16:38:26.916Z,12.61
2023-05-02T16:40:53.857Z,12.83
2023-05-02T16:43:21.222Z,13.14
2023-05-02T16:45:48.233Z,13.32
2023-05-02T16:48:15.238Z,13.12
2023-05-02T16:50:42.398Z,12.95
2023-05-02T16:53:09.452Z,12.81
2023-05-02T16:55:36.624Z,12.66
2023-05-02T16:58:03.616Z,12.63
2023-05-02T17:00:30.589Z,12.62
2023-05-02T17:02:57.653Z,12.50
2023-05-02T17:05:24.852Z,12.76
2023-05-02T17:07:52.069Z,13.09
2023-05-02T17:10:19.290Z,12.93
2023-05-02T17:12:46.955Z,12.73
2023-05-02T17:15:14.279Z,12.76
2023-05-02T17:17:42.365Z,12.68
2023-05-02T17:20:11.257Z,12.62
2023-05-02T17:22:39.002Z,12.69
2023-05-02T17:25:06.636Z,12.64
2023-05-02T17:27:33.876Z,12.39
2023-05-02T17:30:00.995Z,12.16
2023-05-02T17:32:28.401Z,11.93
2023-05-02T17:34:56.889Z,11.79
2023-05-02T17:37:26.336Z,11.76
2023-05-02T17:39:53.303Z,11.66
2023-05-02T17:42:20.213Z,11.67
2023-05-02T17:44:48.588Z,11.69
2023-05-02T17:47:18.242Z,11.73
2023-05-02T17:49:46.098Z,11.78
2023-05-02T17:52:13.124Z,11.70
2023-05-02T17:54:40.033Z,11.63
2023-05-02T17:57:07.077Z,11.62
2023-05-02T17:59:34.137Z,11.68
2023-05-02T18:02:01.150Z,11.64
2023-05-02T18:04:28.265Z,11.67
2023-05-02T18:06:55.686Z,11.63
2023-05-02T18:09:22.796Z,11.56
2023-05-02T18:11:49.908Z,11.46
2023-05-02T18:14:16.923Z,11.49
2023-05-02T18:16:48.589Z,11.43
2023-05-02T18:19:16.162Z,11.40
2023-05-02T18:21:44.735Z,11.34
2023-05-02T18:24:12.183Z,11.18
2023-05-02T18:26:39.165Z,11.27
2023-05-02T18:29:06.148Z,11.25
2023-05-02T18:31:33.366Z,11.19
2023-05-02T18:34:00.514Z,11.11
2023-05-02T18:36:28.972Z,10.99
2023-05-02T18:38:56.486Z,11.04
2023-05-02T18:41:23.645Z,11.00
2023-05-02T18:43:50.658Z,10.95
2023-05-02T18:46:17.694Z,10.94
2023-05-02T18:48:44.796Z,10.85
2023-05-02T18:51:11.805Z,10.87
2023-05-02T18:53:38.753Z,10.86
2023-05-02T18:56:12.483Z,10.87
2023-05-02T18:58:39.412Z,10.66
2023-05-02T19:01:15.180Z,10.65
2023-05-02T19:03:43.914Z,10.64
2023-05-02T19:06:11.285Z,10.69
2023-05-02T19:08:40.375Z,10.72
2023-05-02T19:11:07.457Z,10.61
2023-05-02T19:13:34.384Z,10.55
2023-05-02T19:16:01.443Z,10.44
2023-05-02T19:18:28.523Z,10.46
2023-05-02T19:20:55.755Z,10.45
2023-05-02T19:23:23.302Z,10.51
2023-05-02T19:25:50.325Z,10.44
2023-05-02T19:28:17.357Z,10.37
2023-05-02T19:30:44.857Z,10.33
2023-05-02T19:33:12.057Z,10.30
2023-05-02T19:35:39.567Z,10.44
2023-05-02T19:38:06.602Z,10.52
2023-05-02T19:40:33.641Z,10.56
2023-05-02T19:43:00.653Z,10.59
2023-05-02T19:45:27.990Z,10.57
2023-05-02T19:47:54.987Z,10.58
2023-05-02T19:50:22.036Z,10.65
2023-05-02T19:52:50.457Z,10.64
2023-05-02T19:55:18.687Z,10.65
2023-05-02T19:57:45.777Z,10.73
2023-05-02T20:00:14.202Z,10.67
2023-05-02T20:02:41.550Z,10.57
2023-05-02T20:05:09.134Z,10.59
2023-05-02T20:07:36.334Z,10.51
2023-05-02T20:10:03.938Z,10.41
2023-05-02T20:12:31.189Z,10.35
2023-05-02T20:14:58.321Z,10.40
2023-05-02T20:17:25.816Z,10.31
2023-05-02T20:19:52.828Z,10.19
2023-05-02T20:22:19.838Z,10.12
2023-05-02T20:24:46.783Z,10.05
2023-05-02T20:27:13.836Z,10.09
2023-05-02T20:29:40.886Z,10.11
2023-05-02T20:32:08.518Z,10.11
2023-05-02T20:34:35.834Z,10.10
2023-05-02T20:37:05.515Z,9.99
2023-05-02T20:39:32.809Z,9.95
2023-05-02T20:41:59.811Z,10.00
2023-05-02T20:44:28.684Z,9.95
2023-05-02T20:46:55.800Z,9.90
2023-05-02T20:49:22.739Z,9.90
2023-05-02T20:51:50.649Z,9.96
2023-05-02T20:54:18.738Z,9.88
2023-05-02T20:56:45.675Z,9.90
2023-05-02T20:59:12.723Z,9.89
2023-05-02T21:01:39.818Z,9.91
2023-05-02T21:04:07.102Z,9.85
2023-05-02T21:06:34.258Z,9.89
2023-05-02T21:09:02.338Z,9.86
2023-05-02T21:11:29.594Z,9.79
2023-05-02T21:13:56.634Z,9.72
2023-05-02T21:16:23.682Z,9.66
2023-05-02T21:18:50.829Z,9.64
2023-05-02T21:21:17.875Z,9.70
2023-05-02T21:23:44.883Z,9.76
2023-05-02T21:26:11.863Z,9.69
2023-05-02T21:28:39.087Z,9.63
2023-05-02T21:31:07.682Z,9.57
2023-05-02T21:33:35.023Z,9.56
2023-05-02T21:36:02.035Z,9.50
2023-05-02T21:38:29.438Z,9.37
2023-05-02T21:40:56.440Z,9.27
2023-05-02T21:43:23.384Z,9.24
2023-05-02T21:45:50.643Z,9.36
2023-05-02T21:48:17.942Z,9.50
2023-05-02T21:50:47.666Z,9.57
2023-05-02T21:53:14.686Z,9.65
2023-05-02T21:55:41.736Z,9.64
2023-05-02T21:58:11.308Z,9.63
2023-05-02T22:00:39.171Z,9.69
2023-05-02T22:03:12.039Z,9.81
2023-05-02T22:05:40.100Z,9.76
2023-05-02T22:08:08.785Z,9.77
2023-05-02T22:10:38.783Z,9.81
2023-05-02T22:13:09.684Z,9.84
2023-05-02T22:15:36.979Z,9.77
2023-05-02T22:18:06.924Z,9.78
2023-05-02T22:20:34.123Z,9.85
2023-05-02T22:23:01.115Z,9.87
2023-05-02T22:25:29.132Z,9.91
2023-05-02T22:27:56.192Z,9.95
2023-05-02T22:30:23.233Z,10.00
2023-05-02T22:32:50.294Z,10.03
2023-05-02T22:35:18.205Z,9.99
2023-05-02T22:37:45.133Z,9.97
2023-05-02T22:40:12.812Z,9.96
2023-05-02T22:42:39.727Z,9.98
2023-05-02T22:45:07.917Z,9.89
2023-05-02T22:47:36.376Z,9.90
2023-05-02T22:50:05.724Z,9.85
2023-05-02T22:52:37.906Z,9.83
2023-05-02T22:55:09.309Z,9.81
2023-05-02T22:57:37.295Z,9.80
2023-05-02T23:00:05.985Z,9.77
2023-05-02T23:02:33.663Z,9.67
2023-05-02T23:05:01.329Z,9.69
2023-05-02T23:07:28.277Z,9.63
2023-05-02T23:09:55.898Z,9.62
2023-05-02T23:12:22.961Z,9.58
2023-05-02T23:14:49.992Z,9.48
2023-05-02T23:17:17.108Z,9.45
2023-05-02T23:19:44.123Z,9.52
2023-05-02T23:22:11.091Z,9.48
2023-05-02T23:24:38.073Z,9.41
2023-05-02T23:27:06.439Z,9.44
2023-05-02T23:29:33.500Z,9.45
2023-05-02T23:32:00.922Z,9.50
2023-05-02T23:34:28.538Z,9.48
2023-05-02T23:36:55.645Z,9.41
2023-05-02T23:39:22.596Z,9.44
2023-05-02T23:41:49.572Z,9.35
2023-05-02T23:44:16.650Z,9.24
2023-05-02T23:46:43.679Z,9.22
2023-05-02T23:49:10.710Z,9.24
2023-05-02T23:51:37.942Z,9.17
2023-05-02T23:54:04.885Z,9.11
2023-05-02T23:56:31.838Z,9.04
2023-05-02T23:58:58.781Z,8.88
